Time;durP1;ratioP1;P1;durP2;ratioP2;P2;SDS_P1;SDS_P2;PMS_P1;PMS_P2;Temp;Humidity;BMP_temperature;BMP_pressure;BME280_temperature;BME280_humidity;BME280_pressure;Samples;Min_cycle;Max_cycle;Signal;HPM_P1;HPM_P2
2022/06/19 00:00:37;;;;;;;;;;;18.60;99.90;;;;;;4591570;19;20245;-32
2022/06/19 00:02:09;;;;;;;;;;;18.60;99.90;;;;;;4590371;19;20325;-32
2022/06/19 00:03:47;;;;;;;;;;;18.60;99.90;;;;;;4591288;19;19915;-34
2022/06/19 00:05:18;;;;;;;;;;;18.50;99.90;;;;;;4591921;19;20333;-38
2022/06/19 00:06:49;;;;;;;;;;;18.50;99.90;;;;;;4591441;19;19939;-36
2022/06/19 00:08:20;;;;;;;;;;;18.50;99.90;;;;;;4591666;19;19925;-32
2022/06/19 00:09:51;;;;;;;;;;;18.50;99.90;;;;;;4590253;19;19938;-33
2022/06/19 00:11:22;;;;;;;;;;;18.60;99.90;;;;;;4591773;19;19918;-32
2022/06/19 00:12:53;;;;;;;;;;;18.50;99.90;;;;;;4591399;19;20277;-32
2022/06/19 00:14:24;;;;;;;;;;;18.50;99.90;;;;;;4591767;19;19915;-32
2022/06/19 00:15:55;;;;;;;;;;;18.50;99.90;;;;;;4591531;19;20241;-32
2022/06/19 00:17:26;;;;;;;;;;;18.50;99.90;;;;;;4591610;19;19911;-38
2022/06/19 00:18:57;;;;;;;;;;;18.50;99.90;;;;;;4591016;19;19914;-35
2022/06/19 00:20:28;;;;;;;;;;;18.50;99.90;;;;;;4591322;19;19918;-39
2022/06/19 00:21:59;;;;;;;;;;;18.50;99.90;;;;;;4591866;19;19925;-32
2022/06/19 00:23:30;;;;;;;;;;;18.50;99.90;;;;;;4590954;19;19930;-38
2022/06/19 00:25:01;;;;;;;;;;;18.50;99.90;;;;;;4591272;19;19927;-36
2022/06/19 00:26:32;;;;;;;;;;;18.50;99.90;;;;;;4590415;19;20257;-32
2022/06/19 00:28:04;;;;;;;;;;;18.40;99.90;;;;;;4590863;19;19921;-35
2022/06/19 00:29:35;;;;;;;;;;;18.40;99.90;;;;;;4590883;19;19922;-32
2022/06/19 00:31:07;;;;;;;;;;;18.40;99.90;;;;;;4592270;19;19918;-32
2022/06/19 00:32:38;;;;;;;;;;;18.40;99.90;;;;;;4591293;19;19926;-33
2022/06/19 00:34:09;;;;;;;;;;;18.40;99.90;;;;;;4590074;19;19919;-31
2022/06/19 00:35:40;;;;;;;;;;;18.40;99.90;;;;;;4590667;19;20408;-31
2022/06/19 00:37:11;;;;;;;;;;;18.40;99.90;;;;;;4591382;19;19922;-32
2022/06/19 00:38:42;;;;;;;;;;;18.40;99.90;;;;;;4592624;19;19942;-32
2022/06/19 00:40:13;;;;;;;;;;;18.40;99.90;;;;;;4590362;19;19919;-31
2022/06/19 00:41:44;;;;;;;;;;;18.40;99.90;;;;;;4592527;19;19914;-33
2022/06/19 00:43:15;;;;;;;;;;;18.30;99.90;;;;;;4593330;19;19910;-31
2022/06/19 00:44:47;;;;;;;;;;;18.30;99.90;;;;;;4590942;19;19922;-32
2022/06/19 00:46:37;;;;;;;;;;;18.30;99.90;;;;;;4591297;19;19915;-32
2022/06/19 00:48:12;;;;;;;;;;;18.30;99.90;;;;;;4590539;19;19974;-37
2022/06/19 00:49:50;;;;;;;;;;;18.30;99.90;;;;;;4589444;19;19986;-34
2022/06/19 00:51:21;;;;;;;;;;;18.30;99.90;;;;;;4589875;19;19914;-30
2022/06/19 00:52:52;;;;;;;;;;;18.30;99.90;;;;;;4591478;19;19915;-34
2022/06/19 00:54:23;;;;;;;;;;;18.20;99.90;;;;;;4588773;19;19918;-34
2022/06/19 00:55:54;;;;;;;;;;;18.20;99.90;;;;;;4590325;19;19938;-33
2022/06/19 00:57:26;;;;;;;;;;;18.20;99.90;;;;;;4590949;19;19919;-31
2022/06/19 00:58:57;;;;;;;;;;;18.20;99.90;;;;;;4590183;19;20267;-32
2022/06/19 01:00:28;;;;;;;;;;;18.20;99.90;;;;;;4588550;19;19910;-37
2022/06/19 01:02:00;;;;;;;;;;;18.20;99.90;;;;;;4589734;19;20026;-35
2022/06/19 01:03:42;;;;;;;;;;;18.20;99.90;;;;;;4590666;19;19919;-33
2022/06/19 01:05:14;;;;;;;;;;;18.10;99.90;;;;;;4589387;19;19915;-33
2022/06/19 01:06:45;;;;;;;;;;;18.10;99.90;;;;;;4589368;19;19966;-36
2022/06/19 01:08:16;;;;;;;;;;;18.10;99.90;;;;;;4589603;19;19914;-35
2022/06/19 01:09:47;;;;;;;;;;;18.10;99.90;;;;;;4590531;19;19942;-33
2022/06/19 01:11:19;;;;;;;;;;;18.10;99.90;;;;;;4590225;19;20324;-31
2022/06/19 01:12:50;;;;;;;;;;;18.10;99.90;;;;;;4590663;19;19921;-31
2022/06/19 01:14:21;;;;;;;;;;;18.10;99.90;;;;;;4589494;19;19977;-31
2022/06/19 01:15:52;;;;;;;;;;;18.10;99.90;;;;;;4589734;19;20253;-34
2022/06/19 01:17:23;;;;;;;;;;;18.10;99.90;;;;;;4589805;19;19922;-35
2022/06/19 01:18:54;;;;;;;;;;;18.10;99.90;;;;;;4590968;19;19948;-33
2022/06/19 01:20:25;;;;;;;;;;;18.10;99.90;;;;;;4594748;19;19915;-32
2022/06/19 01:21:56;;;;;;;;;;;18.00;99.90;;;;;;4594613;19;19919;-33
2022/06/19 01:23:40;;;;;;;;;;;18.00;99.90;;;;;;4595013;19;19919;-37
2022/06/19 01:25:16;;;;;;;;;;;18.00;99.90;;;;;;4593848;19;19915;-37
2022/06/19 01:26:47;;;;;;;;;;;18.00;99.90;;;;;;4593618;19;19930;-34
2022/06/19 01:28:46;;;;;;;;;;;18.00;99.90;;;;;;4594617;19;20354;-32
2022/06/19 01:30:17;;;;;;;;;;;18.00;99.90;;;;;;4593462;19;19926;-35
2022/06/19 01:31:53;;;;;;;;;;;17.90;99.90;;;;;;4593486;19;19919;-33
2022/06/19 01:33:26;;;;;;;;;;;17.90;99.90;;;;;;4593277;19;19918;-33
2022/06/19 01:34:56;;;;;;;;;;;17.90;99.90;;;;;;4594950;19;19917;-32
2022/06/19 01:36:28;;;;;;;;;;;17.90;99.90;;;;;;4594348;19;19915;-35
2022/06/19 01:37:59;;;;;;;;;;;17.90;99.90;;;;;;4594752;19;19919;-32
2022/06/19 01:39:32;;;;;;;;;;;17.90;99.90;;;;;;4592625;19;19979;-31
2022/06/19 01:41:06;;;;;;;;;;;17.90;99.90;;;;;;4593946;19;19915;-34
2022/06/19 01:42:37;;;;;;;;;;;17.90;99.90;;;;;;4592405;19;19922;-32
2022/06/19 01:44:08;;;;;;;;;;;17.90;99.90;;;;;;4594020;19;19919;-32
2022/06/19 01:45:40;;;;;;;;;;;17.90;99.90;;;;;;4595686;19;19919;-29
2022/06/19 01:47:11;;;;;;;;;;;17.90;99.90;;;;;;4596242;19;20273;-35
2022/06/19 01:48:41;;;;;;;;;;;17.90;99.90;;;;;;4596281;19;19995;-35
2022/06/19 01:50:18;;;;;;;;;;;17.90;99.90;;;;;;4594456;19;19919;-40
2022/06/19 01:51:49;;;;;;;;;;;17.90;99.90;;;;;;4593557;19;20443;-33
2022/06/19 01:53:22;;;;;;;;;;;17.90;99.90;;;;;;4596781;19;19942;-30
2022/06/19 01:54:53;;;;;;;;;;;17.90;99.90;;;;;;4591727;19;20404;-35
2022/06/19 01:56:25;;;;;;;;;;;17.90;99.90;;;;;;4593304;19;19923;-33
2022/06/19 01:57:56;;;;;;;;;;;17.90;99.90;;;;;;4593915;19;19910;-32
2022/06/19 01:59:28;;;;;;;;;;;17.90;99.90;;;;;;4592223;19;19911;-35
2022/06/19 02:00:59;;;;;;;;;;;17.90;99.90;;;;;;4592870;19;20395;-35
2022/06/19 02:02:32;;;;;;;;;;;17.90;99.90;;;;;;4593942;19;19944;-35
2022/06/19 02:04:04;;;;;;;;;;;17.90;99.90;;;;;;4593443;19;19910;-34
2022/06/19 02:05:36;;;;;;;;;;;17.90;99.90;;;;;;4593170;19;19926;-32
2022/06/19 02:07:08;;;;;;;;;;;17.90;99.90;;;;;;4594854;19;20309;-34
2022/06/19 02:08:39;;;;;;;;;;;17.90;99.90;;;;;;4593070;19;20410;-32
2022/06/19 02:10:10;;;;;;;;;;;17.90;99.90;;;;;;4596283;19;19942;-31
2022/06/19 02:11:40;;;;;;;;;;;17.90;99.90;;;;;;4593820;19;20361;-32
2022/06/19 02:13:12;;;;;;;;;;;17.80;99.90;;;;;;4593793;19;19911;-30
2022/06/19 02:14:43;;;;;;;;;;;17.80;99.90;;;;;;4593543;19;20255;-32
2022/06/19 02:16:16;;;;;;;;;;;17.80;99.90;;;;;;4592598;19;19975;-33
2022/06/19 02:17:49;;;;;;;;;;;17.80;99.90;;;;;;4593274;19;19942;-32
2022/06/19 02:19:21;;;;;;;;;;;17.80;99.90;;;;;;4591881;19;19918;-31
2022/06/19 02:20:52;;;;;;;;;;;17.80;99.90;;;;;;4592774;19;19994;-33
2022/06/19 02:22:24;;;;;;;;;;;17.80;99.90;;;;;;4591595;19;19922;-33
2022/06/19 02:23:55;;;;;;;;;;;17.80;99.90;;;;;;4591990;19;19955;-33
2022/06/19 02:25:26;;;;;;;;;;;17.80;99.90;;;;;;4593580;19;20337;-33
2022/06/19 02:26:57;;;;;;;;;;;17.80;99.90;;;;;;4593832;19;20028;-38
2022/06/19 02:28:28;;;;;;;;;;;17.70;99.90;;;;;;4593036;19;20337;-32
2022/06/19 02:30:01;;;;;;;;;;;17.70;99.90;;;;;;4591931;19;19907;-33
2022/06/19 02:31:32;;;;;;;;;;;17.70;99.90;;;;;;4592542;19;19915;-33
2022/06/19 02:33:04;;;;;;;;;;;17.70;99.90;;;;;;4593558;19;20302;-33
2022/06/19 02:34:38;;;;;;;;;;;17.70;99.90;;;;;;4592240;19;19922;-33
2022/06/19 02:36:28;;;;;;;;;;;17.70;99.90;;;;;;4592787;19;19932;-32
2022/06/19 02:37:59;;;;;;;;;;;17.70;99.90;;;;;;4594074;19;19925;-33
2022/06/19 02:39:42;;;;;;;;;;;17.70;99.90;;;;;;4591470;19;19918;-32
2022/06/19 02:41:14;;;;;;;;;;;17.70;99.90;;;;;;4593027;19;20238;-32
2022/06/19 02:42:46;;;;;;;;;;;17.70;99.90;;;;;;4592071;19;20322;-33
2022/06/19 02:44:17;;;;;;;;;;;17.70;99.90;;;;;;4593311;19;19918;-33
2022/06/19 02:45:48;;;;;;;;;;;17.70;99.90;;;;;;4593719;19;20347;-34
2022/06/19 02:47:23;;;;;;;;;;;17.70;99.90;;;;;;4591985;19;19922;-31
2022/06/19 02:48:54;;;;;;;;;;;17.60;99.90;;;;;;4592648;19;20274;-34
2022/06/19 02:50:26;;;;;;;;;;;17.70;99.90;;;;;;4593373;19;19978;-31
2022/06/19 02:51:58;;;;;;;;;;;17.70;99.90;;;;;;4592398;19;19949;-35
2022/06/19 02:53:29;;;;;;;;;;;17.70;99.90;;;;;;4592658;19;19915;-36
2022/06/19 02:55:00;;;;;;;;;;;17.60;99.90;;;;;;4592046;19;19919;-31
2022/06/19 02:56:31;;;;;;;;;;;17.60;99.90;;;;;;4593055;19;20329;-34
2022/06/19 02:58:02;;;;;;;;;;;17.70;99.90;;;;;;4593344;19;19910;-34
2022/06/19 02:59:33;;;;;;;;;;;17.60;99.90;;;;;;4592049;19;19915;-34
2022/06/19 03:01:04;;;;;;;;;;;17.60;99.90;;;;;;4593177;19;19927;-34
2022/06/19 03:02:35;;;;;;;;;;;17.60;99.90;;;;;;4593495;19;19934;-32
2022/06/19 03:04:09;;;;;;;;;;;17.60;99.90;;;;;;4593068;19;20263;-33
2022/06/19 03:05:40;;;;;;;;;;;17.60;99.90;;;;;;4591503;19;20283;-33
2022/06/19 03:07:11;;;;;;;;;;;17.60;99.90;;;;;;4592266;19;19918;-36
2022/06/19 03:08:42;;;;;;;;;;;17.60;99.90;;;;;;4593143;19;19914;-38
2022/06/19 03:10:13;;;;;;;;;;;17.60;99.90;;;;;;4592474;19;19922;-34
2022/06/19 03:11:44;;;;;;;;;;;17.60;99.90;;;;;;4593019;19;19927;-35
2022/06/19 03:13:18;;;;;;;;;;;17.60;99.90;;;;;;4593066;19;20320;-35
2022/06/19 03:14:49;;;;;;;;;;;17.60;99.90;;;;;;4593247;19;19928;-34
2022/06/19 03:16:20;;;;;;;;;;;17.60;99.90;;;;;;4592475;19;19974;-38
2022/06/19 03:17:51;;;;;;;;;;;17.70;99.90;;;;;;4592971;19;19922;-32
2022/06/19 03:19:22;;;;;;;;;;;17.70;99.90;;;;;;4592469;19;19911;-33
2022/06/19 03:20:53;;;;;;;;;;;17.70;99.90;;;;;;4592694;19;19915;-35
2022/06/19 03:22:25;;;;;;;;;;;17.70;99.90;;;;;;4592430;19;20301;-35
2022/06/19 03:23:56;;;;;;;;;;;17.70;99.90;;;;;;4592438;19;19918;-34
2022/06/19 03:25:26;;;;;;;;;;;17.70;99.90;;;;;;4593114;19;20284;-38
2022/06/19 03:26:57;;;;;;;;;;;17.70;99.90;;;;;;4594655;19;19942;-33
2022/06/19 03:28:29;;;;;;;;;;;17.60;99.90;;;;;;4592360;19;19911;-32
2022/06/19 03:30:00;;;;;;;;;;;17.70;99.90;;;;;;4592631;19;20439;-34
2022/06/19 03:31:31;;;;;;;;;;;17.70;99.90;;;;;;4592477;19;19974;-32
2022/06/19 03:33:02;;;;;;;;;;;17.60;99.90;;;;;;4592391;19;19919;-34
2022/06/19 03:34:33;;;;;;;;;;;17.70;99.90;;;;;;4592218;19;19915;-33
2022/06/19 03:36:05;;;;;;;;;;;17.70;99.90;;;;;;4594493;19;20329;-33
2022/06/19 03:37:36;;;;;;;;;;;17.70;99.90;;;;;;4592431;19;19914;-35
2022/06/19 03:39:07;;;;;;;;;;;17.70;99.90;;;;;;4591945;19;20275;-34
2022/06/19 03:40:38;;;;;;;;;;;17.70;99.90;;;;;;4592132;19;20308;-35
2022/06/19 03:42:10;;;;;;;;;;;17.70;99.90;;;;;;4591698;19;19911;-36
2022/06/19 03:43:41;;;;;;;;;;;17.70;99.90;;;;;;4591907;19;19988;-34
2022/06/19 03:45:12;;;;;;;;;;;17.70;99.90;;;;;;4589353;19;19922;-38
2022/06/19 03:46:43;;;;;;;;;;;17.70;99.90;;;;;;4591063;19;20339;-34
2022/06/19 03:48:14;;;;;;;;;;;17.70;99.90;;;;;;4590906;19;19931;-34
2022/06/19 03:49:45;;;;;;;;;;;17.80;99.90;;;;;;4591289;19;19915;-32
2022/06/19 03:51:16;;;;;;;;;;;17.80;99.90;;;;;;4590964;19;19915;-36
2022/06/19 03:52:47;;;;;;;;;;;17.80;99.90;;;;;;4591874;19;19911;-35
2022/06/19 03:54:18;;;;;;;;;;;17.80;99.90;;;;;;4591829;19;19975;-37
2022/06/19 03:55:49;;;;;;;;;;;17.80;99.90;;;;;;4591737;19;19906;-37
2022/06/19 03:57:20;;;;;;;;;;;17.80;99.90;;;;;;4590503;19;19915;-35
2022/06/19 03:58:52;;;;;;;;;;;17.80;99.90;;;;;;4591317;19;20060;-34
2022/06/19 04:00:22;;;;;;;;;;;17.90;99.90;;;;;;4590783;19;20361;-39
2022/06/19 04:01:53;;;;;;;;;;;17.90;99.90;;;;;;4590607;19;20009;-32
2022/06/19 04:03:24;;;;;;;;;;;17.90;99.90;;;;;;4591564;19;19919;-37
2022/06/19 04:04:56;;;;;;;;;;;17.90;99.90;;;;;;4591863;19;19914;-38
2022/06/19 04:06:30;;;;;;;;;;;17.90;99.90;;;;;;4591510;19;19926;-36
2022/06/19 04:08:01;;;;;;;;;;;17.90;99.90;;;;;;4591481;19;19940;-38
2022/06/19 04:09:32;;;;;;;;;;;17.90;99.90;;;;;;4591934;19;19944;-33
2022/06/19 04:11:04;;;;;;;;;;;18.00;99.90;;;;;;4590618;19;19993;-32
2022/06/19 04:12:35;;;;;;;;;;;17.90;99.90;;;;;;4590810;19;20357;-39
2022/06/19 04:14:06;;;;;;;;;;;18.00;99.90;;;;;;4591413;19;19923;-34
2022/06/19 04:15:37;;;;;;;;;;;18.00;99.90;;;;;;4591500;19;19966;-34
2022/06/19 04:17:08;;;;;;;;;;;18.00;99.90;;;;;;4591687;19;19984;-33
2022/06/19 04:18:39;;;;;;;;;;;18.00;99.90;;;;;;4591225;19;19914;-33
2022/06/19 04:20:10;;;;;;;;;;;18.10;99.90;;;;;;4590623;19;19919;-39
2022/06/19 04:21:42;;;;;;;;;;;18.10;99.90;;;;;;4591542;19;19974;-33
2022/06/19 04:23:13;;;;;;;;;;;18.10;99.90;;;;;;4591409;19;19915;-34
2022/06/19 04:24:44;;;;;;;;;;;18.10;99.90;;;;;;4591363;19;19919;-34
2022/06/19 04:26:15;;;;;;;;;;;18.10;99.90;;;;;;4591162;19;19970;-37
2022/06/19 04:27:46;;;;;;;;;;;18.10;99.90;;;;;;4592120;19;19922;-39
2022/06/19 04:29:18;;;;;;;;;;;18.10;99.90;;;;;;4590919;19;20409;-36
2022/06/19 04:30:52;;;;;;;;;;;18.10;99.90;;;;;;4591289;19;19922;-33
2022/06/19 04:32:22;;;;;;;;;;;18.10;99.90;;;;;;4589966;19;20345;-34
2022/06/19 04:33:53;;;;;;;;;;;18.20;99.90;;;;;;4590825;19;19915;-34
2022/06/19 04:35:24;;;;;;;;;;;18.20;99.90;;;;;;4591063;19;19914;-35
2022/06/19 04:36:55;;;;;;;;;;;18.20;99.90;;;;;;4591392;19;19919;-36
2022/06/19 04:38:28;;;;;;;;;;;18.20;99.90;;;;;;4590522;19;20359;-31
2022/06/19 04:39:59;;;;;;;;;;;18.20;99.90;;;;;;4590289;19;19919;-35
2022/06/19 04:41:32;;;;;;;;;;;18.30;99.90;;;;;;4590838;19;20333;-36
2022/06/19 04:43:03;;;;;;;;;;;18.30;99.90;;;;;;4590610;19;19915;-33
2022/06/19 04:44:34;;;;;;;;;;;18.30;99.90;;;;;;4591527;19;19939;-38
2022/06/19 04:46:05;;;;;;;;;;;18.30;99.90;;;;;;4588300;19;19915;-34
2022/06/19 04:47:37;;;;;;;;;;;18.30;99.90;;;;;;4589996;19;19911;-33
2022/06/19 04:49:08;;;;;;;;;;;18.30;99.90;;;;;;4591409;19;19915;-34
2022/06/19 04:50:39;;;;;;;;;;;18.40;99.90;;;;;;4589843;19;19918;-37
2022/06/19 04:52:10;;;;;;;;;;;18.40;99.90;;;;;;4590138;19;19974;-35
2022/06/19 04:53:41;;;;;;;;;;;18.40;99.90;;;;;;4592151;19;19967;-35
2022/06/19 04:55:12;;;;;;;;;;;18.40;99.90;;;;;;4593584;19;19929;-35
2022/06/19 04:56:46;;;;;;;;;;;18.40;99.90;;;;;;4595899;19;19918;-36
2022/06/19 04:58:17;;;;;;;;;;;18.50;99.90;;;;;;4595292;19;20321;-32
2022/06/19 04:59:48;;;;;;;;;;;18.50;99.90;;;;;;4594483;19;20382;-34
2022/06/19 05:01:19;;;;;;;;;;;18.50;99.90;;;;;;4595628;19;19918;-34
2022/06/19 05:02:50;;;;;;;;;;;18.60;99.90;;;;;;4595120;19;19925;-34
2022/06/19 05:04:21;;;;;;;;;;;18.50;99.90;;;;;;4595433;19;20257;-33
2022/06/19 05:05:53;;;;;;;;;;;18.50;99.90;;;;;;4595736;19;19919;-33
2022/06/19 05:07:24;;;;;;;;;;;18.50;99.90;;;;;;4594484;19;19915;-31
2022/06/19 05:08:55;;;;;;;;;;;18.60;99.90;;;;;;4594510;19;19918;-32
2022/06/19 05:10:26;;;;;;;;;;;18.60;99.90;;;;;;4595137;19;20326;-35
2022/06/19 05:11:57;;;;;;;;;;;18.60;99.90;;;;;;4595476;19;20007;-34
2022/06/19 05:13:28;;;;;;;;;;;18.60;99.90;;;;;;4595144;19;19923;-34
2022/06/19 05:14:59;;;;;;;;;;;18.60;99.90;;;;;;4594872;19;19915;-33
2022/06/19 05:16:30;;;;;;;;;;;18.70;99.90;;;;;;4595413;19;20278;-34
2022/06/19 05:18:01;;;;;;;;;;;18.70;99.90;;;;;;4595191;19;20305;-35
2022/06/19 05:19:32;;;;;;;;;;;18.70;99.90;;;;;;4594699;19;19913;-36
2022/06/19 05:21:04;;;;;;;;;;;18.70;99.90;;;;;;4595033;19;19938;-33
2022/06/19 05:22:35;;;;;;;;;;;18.80;99.90;;;;;;4593758;19;19943;-31
2022/06/19 05:24:06;;;;;;;;;;;18.80;99.90;;;;;;4594435;19;20381;-35
2022/06/19 05:25:37;;;;;;;;;;;18.80;99.90;;;;;;4594709;19;20327;-33
2022/06/19 05:27:11;;;;;;;;;;;18.80;99.90;;;;;;4594971;19;19930;-35
2022/06/19 05:28:42;;;;;;;;;;;18.80;99.90;;;;;;4595439;19;19914;-34
2022/06/19 05:30:14;;;;;;;;;;;18.90;99.90;;;;;;4595502;19;19966;-34
2022/06/19 05:31:45;;;;;;;;;;;18.90;99.90;;;;;;4594778;19;19950;-32
2022/06/19 05:33:15;;;;;;;;;;;18.90;99.90;;;;;;4595066;19;19911;-32
2022/06/19 05:34:46;;;;;;;;;;;19.00;99.90;;;;;;4595464;19;19914;-35
2022/06/19 05:36:18;;;;;;;;;;;19.00;99.90;;;;;;4594947;19;19914;-36
2022/06/19 05:37:48;;;;;;;;;;;19.00;99.90;;;;;;4593485;19;20325;-32
2022/06/19 05:39:19;;;;;;;;;;;19.00;99.90;;;;;;4594086;19;19915;-34
2022/06/19 05:40:51;;;;;;;;;;;19.00;99.90;;;;;;4595210;19;19923;-36
2022/06/19 05:42:22;;;;;;;;;;;19.10;99.90;;;;;;4593262;19;19966;-34
2022/06/19 05:43:53;;;;;;;;;;;19.10;99.90;;;;;;4594184;19;19922;-36
2022/06/19 05:45:24;;;;;;;;;;;19.10;99.90;;;;;;4594444;19;19915;-34
2022/06/19 05:46:55;;;;;;;;;;;19.10;99.90;;;;;;4595123;19;20246;-32
2022/06/19 05:48:26;;;;;;;;;;;19.20;99.90;;;;;;4594328;19;19970;-32
2022/06/19 05:49:57;;;;;;;;;;;19.20;99.90;;;;;;4594529;19;19915;-34
2022/06/19 05:51:28;;;;;;;;;;;19.20;99.90;;;;;;4593452;19;20321;-34
2022/06/19 05:52:59;;;;;;;;;;;19.20;99.90;;;;;;4593348;19;19915;-33
2022/06/19 05:54:30;;;;;;;;;;;19.30;99.90;;;;;;4592797;19;20268;-36
2022/06/19 05:56:01;;;;;;;;;;;19.30;99.90;;;;;;4594305;19;19923;-33
2022/06/19 05:57:32;;;;;;;;;;;19.30;99.90;;;;;;4595107;19;19926;-32
2022/06/19 05:59:03;;;;;;;;;;;19.30;99.90;;;;;;4593994;19;19932;-34
2022/06/19 06:00:34;;;;;;;;;;;19.30;99.90;;;;;;4592698;19;20318;-33
2022/06/19 06:02:05;;;;;;;;;;;19.40;99.90;;;;;;4593529;19;19915;-33
2022/06/19 06:03:36;;;;;;;;;;;19.40;99.90;;;;;;4594552;19;19915;-34
2022/06/19 06:05:07;;;;;;;;;;;19.40;99.90;;;;;;4593559;19;19915;-32
2022/06/19 06:06:39;;;;;;;;;;;19.40;99.90;;;;;;4594032;19;19927;-32
2022/06/19 06:08:10;;;;;;;;;;;19.40;99.90;;;;;;4594201;19;19934;-36
2022/06/19 06:09:41;;;;;;;;;;;19.50;99.90;;;;;;4594663;19;20020;-34
2022/06/19 06:11:12;;;;;;;;;;;19.50;99.90;;;;;;4593793;19;19940;-32
2022/06/19 06:12:44;;;;;;;;;;;19.60;99.90;;;;;;4594120;19;19911;-37
2022/06/19 06:14:15;;;;;;;;;;;19.60;99.90;;;;;;4594490;19;20248;-32
2022/06/19 06:15:46;;;;;;;;;;;19.60;99.90;;;;;;4594073;19;19915;-32
2022/06/19 06:17:17;;;;;;;;;;;19.60;99.90;;;;;;4593787;19;20266;-37
2022/06/19 06:18:50;;;;;;;;;;;19.70;99.90;;;;;;4592516;19;19919;-32
2022/06/19 06:20:21;;;;;;;;;;;19.60;99.90;;;;;;4592224;19;19922;-32
2022/06/19 06:21:51;;;;;;;;;;;19.60;99.90;;;;;;4591313;19;20329;-37
2022/06/19 06:23:23;;;;;;;;;;;19.70;99.90;;;;;;4593114;19;19956;-33
2022/06/19 06:24:54;;;;;;;;;;;19.70;99.90;;;;;;4593739;19;20332;-32
2022/06/19 06:26:26;;;;;;;;;;;19.70;99.90;;;;;;4593950;19;19919;-32
2022/06/19 06:27:57;;;;;;;;;;;19.80;99.90;;;;;;4593623;19;19970;-34
2022/06/19 06:29:28;;;;;;;;;;;19.80;99.90;;;;;;4593497;19;20325;-33
2022/06/19 06:31:00;;;;;;;;;;;19.80;99.90;;;;;;4590794;19;19921;-33
2022/06/19 06:32:31;;;;;;;;;;;19.80;99.90;;;;;;4592068;19;20259;-34
2022/06/19 06:34:02;;;;;;;;;;;19.80;99.90;;;;;;4593002;19;19932;-34
2022/06/19 06:35:33;;;;;;;;;;;19.90;99.90;;;;;;4593692;19;19931;-36
2022/06/19 06:37:04;;;;;;;;;;;19.90;99.90;;;;;;4593655;19;19919;-33
2022/06/19 06:38:35;;;;;;;;;;;19.90;99.90;;;;;;4593136;19;19932;-33
2022/06/19 06:40:06;;;;;;;;;;;19.90;99.90;;;;;;4592100;19;19911;-35
2022/06/19 06:41:37;;;;;;;;;;;19.90;99.90;;;;;;4593585;19;19922;-33
2022/06/19 06:43:08;;;;;;;;;;;19.90;99.90;;;;;;4593877;19;19918;-33
2022/06/19 06:44:39;;;;;;;;;;;20.00;99.90;;;;;;4593245;19;19923;-34
2022/06/19 06:46:12;;;;;;;;;;;20.00;99.90;;;;;;4593725;19;19922;-34
2022/06/19 06:47:43;;;;;;;;;;;20.00;99.90;;;;;;4593700;19;19915;-34
2022/06/19 06:49:14;;;;;;;;;;;20.00;99.90;;;;;;4593438;19;19970;-34
2022/06/19 06:50:45;;;;;;;;;;;20.00;99.90;;;;;;4592723;19;20254;-32
2022/06/19 06:52:16;;;;;;;;;;;20.10;99.90;;;;;;4592273;19;19921;-36
2022/06/19 06:53:47;;;;;;;;;;;20.00;99.90;;;;;;4593176;19;19918;-34
2022/06/19 06:55:18;;;;;;;;;;;20.10;99.90;;;;;;4592755;19;20302;-35
2022/06/19 06:56:49;;;;;;;;;;;20.10;99.90;;;;;;4593131;19;19974;-32
2022/06/19 06:58:20;;;;;;;;;;;20.10;99.90;;;;;;4593369;19;20582;-36
2022/06/19 06:59:51;;;;;;;;;;;20.10;99.90;;;;;;4592503;19;19921;-35
2022/06/19 07:01:22;;;;;;;;;;;20.10;99.90;;;;;;4592964;19;19915;-32
2022/06/19 07:02:54;;;;;;;;;;;20.10;99.90;;;;;;4591921;19;19907;-33
2022/06/19 07:04:25;;;;;;;;;;;20.20;99.90;;;;;;4592297;19;19921;-34
2022/06/19 07:05:56;;;;;;;;;;;20.10;99.90;;;;;;4593556;19;20265;-34
2022/06/19 07:07:27;;;;;;;;;;;20.20;99.90;;;;;;4593026;19;19919;-34
2022/06/19 07:08:58;;;;;;;;;;;20.20;99.90;;;;;;4592904;19;19943;-32
2022/06/19 07:10:28;;;;;;;;;;;20.30;99.90;;;;;;4592087;19;19940;-35
2022/06/19 07:12:00;;;;;;;;;;;20.30;99.90;;;;;;4592421;19;19910;-33
2022/06/19 07:13:31;;;;;;;;;;;20.30;99.90;;;;;;4592514;19;19974;-33
2022/06/19 07:15:02;;;;;;;;;;;20.30;99.90;;;;;;4593028;19;20260;-31
2022/06/19 07:16:33;;;;;;;;;;;20.30;99.90;;;;;;4591343;19;19911;-38
2022/06/19 07:18:04;;;;;;;;;;;20.30;99.90;;;;;;4592363;19;20311;-34
2022/06/19 07:19:35;;;;;;;;;;;20.40;99.90;;;;;;4592346;19;19915;-32
2022/06/19 07:21:06;;;;;;;;;;;20.40;99.90;;;;;;4591370;19;19925;-32
2022/06/19 07:22:37;;;;;;;;;;;20.50;99.90;;;;;;4592603;19;19918;-32
2022/06/19 07:24:08;;;;;;;;;;;20.40;99.90;;;;;;4592542;19;19915;-33
2022/06/19 07:25:39;;;;;;;;;;;20.50;99.90;;;;;;4592501;19;20260;-35
2022/06/19 07:27:10;;;;;;;;;;;20.50;99.90;;;;;;4593115;19;19915;-34
2022/06/19 07:28:41;;;;;;;;;;;20.50;99.90;;;;;;4592450;19;20244;-37
2022/06/19 07:30:16;;;;;;;;;;;20.50;99.90;;;;;;4592206;19;19923;-33
2022/06/19 07:31:47;;;;;;;;;;;20.50;99.90;;;;;;4590893;19;19914;-32
2022/06/19 07:33:19;;;;;;;;;;;20.60;99.90;;;;;;4592311;19;20340;-32
2022/06/19 07:34:50;;;;;;;;;;;20.60;99.90;;;;;;4592210;19;20498;-32
2022/06/19 07:36:21;;;;;;;;;;;20.60;99.90;;;;;;4592507;19;19914;-34
2022/06/19 07:37:52;;;;;;;;;;;20.60;99.90;;;;;;4592611;19;19990;-34
2022/06/19 07:39:23;;;;;;;;;;;20.70;99.90;;;;;;4592111;19;19907;-32
2022/06/19 07:40:54;;;;;;;;;;;20.60;99.90;;;;;;4590920;19;19927;-32
2022/06/19 07:42:25;;;;;;;;;;;20.70;99.90;;;;;;4591880;19;19919;-35
2022/06/19 07:43:56;;;;;;;;;;;20.70;99.90;;;;;;4592172;19;20385;-35
2022/06/19 07:45:30;;;;;;;;;;;20.70;99.90;;;;;;4592317;19;19914;-34
2022/06/19 07:50:42;;;;;;;;;;;20.70;99.90;;;;;;4591289;19;20377;-34
2022/06/19 07:52:13;;;;;;;;;;;20.80;99.90;;;;;;4592018;19;20325;-35
2022/06/19 07:53:44;;;;;;;;;;;20.80;99.90;;;;;;4591628;19;19915;-32
2022/06/19 07:55:19;;;;;;;;;;;20.90;99.90;;;;;;4590701;19;19938;-32
2022/06/19 07:56:51;;;;;;;;;;;20.90;99.90;;;;;;4591799;19;19941;-34
2022/06/19 07:58:22;;;;;;;;;;;20.90;99.90;;;;;;4592356;19;19918;-35
2022/06/19 07:59:53;;;;;;;;;;;20.90;99.90;;;;;;4590823;19;19915;-33
2022/06/19 08:01:23;;;;;;;;;;;21.00;99.90;;;;;;4591430;19;19918;-34
2022/06/19 08:02:55;;;;;;;;;;;21.00;99.90;;;;;;4591111;19;19914;-32
2022/06/19 08:04:26;;;;;;;;;;;21.00;99.90;;;;;;4592309;19;20288;-31
2022/06/19 08:05:57;;;;;;;;;;;21.00;99.90;;;;;;4591207;19;19942;-37
2022/06/19 08:07:28;;;;;;;;;;;21.00;99.90;;;;;;4592225;19;19938;-35
2022/06/19 08:09:00;;;;;;;;;;;20.90;99.90;;;;;;4593499;19;19966;-32
2022/06/19 08:10:35;;;;;;;;;;;21.00;99.90;;;;;;4591525;19;19915;-34
2022/06/19 08:12:06;;;;;;;;;;;21.00;99.90;;;;;;4591110;19;19914;-30
2022/06/19 08:13:37;;;;;;;;;;;21.00;99.90;;;;;;4591602;19;19995;-35
2022/06/19 08:15:09;;;;;;;;;;;21.00;99.90;;;;;;4591608;19;19931;-33
2022/06/19 08:16:40;;;;;;;;;;;21.10;99.90;;;;;;4591569;19;20007;-35
2022/06/19 08:18:11;;;;;;;;;;;21.10;99.90;;;;;;4591520;19;20309;-33
2022/06/19 08:19:42;;;;;;;;;;;21.10;99.90;;;;;;4591208;19;19918;-33
2022/06/19 08:21:13;;;;;;;;;;;21.10;99.90;;;;;;4591491;19;19974;-33
2022/06/19 08:22:44;;;;;;;;;;;21.10;99.90;;;;;;4591231;19;20340;-31
2022/06/19 08:24:15;;;;;;;;;;;21.20;99.90;;;;;;4591044;19;19914;-38
2022/06/19 08:25:46;;;;;;;;;;;21.20;99.90;;;;;;4590630;19;20290;-34
2022/06/19 08:27:17;;;;;;;;;;;21.10;99.90;;;;;;4592549;19;19978;-34
2022/06/19 08:29:00;;;;;;;;;;;21.20;99.90;;;;;;4589629;19;19923;-35
2022/06/19 08:30:33;;;;;;;;;;;21.20;99.90;;;;;;4589260;19;20372;-32
2022/06/19 08:32:06;;;;;;;;;;;21.20;99.90;;;;;;4592194;19;19930;-31
2022/06/19 08:33:41;;;;;;;;;;;21.30;99.90;;;;;;4591527;19;19944;-33
2022/06/19 08:35:13;;;;;;;;;;;21.30;99.90;;;;;;4592944;19;20254;-32
2022/06/19 08:36:44;;;;;;;;;;;21.30;99.90;;;;;;4591160;19;19923;-33
2022/06/19 08:38:16;;;;;;;;;;;21.30;99.90;;;;;;4592595;19;19922;-31
2022/06/19 08:39:47;;;;;;;;;;;21.40;99.90;;;;;;4591770;19;20239;-36
2022/06/19 08:41:23;;;;;;;;;;;21.30;99.90;;;;;;4590613;19;19983;-34
2022/06/19 08:43:12;;;;;;;;;;;21.30;99.90;;;;;;4591016;19;19919;-34
2022/06/19 08:44:56;;;;;;;;;;;21.40;99.90;;;;;;4590922;19;20267;-33
2022/06/19 08:46:27;;;;;;;;;;;21.40;99.90;;;;;;4590039;19;19974;-32
2022/06/19 08:47:58;;;;;;;;;;;21.40;99.90;;;;;;4591531;19;19926;-33
2022/06/19 08:49:35;;;;;;;;;;;21.40;99.90;;;;;;4592382;19;19974;-33
2022/06/19 08:51:10;;;;;;;;;;;21.40;99.90;;;;;;4589871;19;20290;-31
2022/06/19 08:53:13;;;;;;;;;;;21.50;99.90;;;;;;4591220;19;19922;-33
2022/06/19 08:54:59;;;;;;;;;;;21.40;99.90;;;;;;4587757;19;19922;-31
2022/06/19 08:56:49;;;;;;;;;;;21.50;99.90;;;;;;4588010;19;20263;-35
2022/06/19 08:58:52;;;;;;;;;;;21.50;99.90;;;;;;4588896;19;19950;-32